EZS459L LFSB-LFKB
Flight info
| Callsign | EZS459L |
|---|---|
| Flight time | 1h 1m |
| Altitude | 37000 |
| Route | ELBEG Y715 AMRUP N491 TRA DCT RIPUS DCT GERSA DCT SOSON DCT ODINA DCT OTMUV DCT UNITA DCT OLETI M858 LIGUR |
| Aircraft | A320/M-SDE3FGHIRWY/LB1 |
Departure
| Time | 2026-04-21 02:43 |
|---|---|
| Airport | EuroAirport Basel–Mulhouse–Freiburg (LFSB) |
Arrival
| Time | 2026-04-21 03:45 |
|---|---|
| Airport | Bastia-Poretta International airport (LFKB) |
| Time | Latitude | Longitude | Altitude | Speed | Heading |
|---|---|---|---|---|---|
| 2026-04-21 02:21 | 47.60137 | 7.52670 | 894 ft | 0 kts | 245° |
| 2026-04-21 02:34 | 47.60138 | 7.52671 | 894 ft | 2 kts | 245° |
| 2026-04-21 02:34 | 47.60149 | 7.52703 | 894 ft | 4 kts | 237° |
| 2026-04-21 02:34 | 47.60164 | 7.52729 | 894 ft | 4 kts | 200° |
| 2026-04-21 02:34 | 47.60178 | 7.52731 | 894 ft | 0 kts | 155° |
| 2026-04-21 02:37 | 47.60162 | 7.52743 | 894 ft | 7 kts | 155° |
| 2026-04-21 02:37 | 47.60122 | 7.52742 | 894 ft | 7 kts | 217° |
| 2026-04-21 02:38 | 47.60088 | 7.52660 | 894 ft | 10 kts | 244° |
| 2026-04-21 02:38 | 47.60059 | 7.52577 | 892 ft | 8 kts | 229° |
| 2026-04-21 02:38 | 47.60007 | 7.52526 | 888 ft | 11 kts | 200° |
| 2026-04-21 02:38 | 47.59927 | 7.52564 | 888 ft | 10 kts | 154° |
| 2026-04-21 02:39 | 47.59854 | 7.52615 | 889 ft | 7 kts | 155° |
| 2026-04-21 02:39 | 47.59810 | 7.52645 | 889 ft | 9 kts | 155° |
| 2026-04-21 02:39 | 47.59762 | 7.52678 | 890 ft | 7 kts | 155° |
| 2026-04-21 02:39 | 47.59700 | 7.52721 | 890 ft | 10 kts | 155° |
| 2026-04-21 02:40 | 47.59638 | 7.52764 | 890 ft | 13 kts | 154° |
| 2026-04-21 02:40 | 47.59589 | 7.52799 | 892 ft | 6 kts | 154° |
| 2026-04-21 02:40 | 47.59547 | 7.52828 | 892 ft | 7 kts | 156° |
| 2026-04-21 02:40 | 47.59540 | 7.52831 | 891 ft | 0 kts | 167° |
| 2026-04-21 02:41 | 47.59525 | 7.52836 | 892 ft | 0 kts | 167° |
| 2026-04-21 02:41 | 47.59512 | 7.52840 | 892 ft | 8 kts | 169° |
| 2026-04-21 02:41 | 47.59462 | 7.52781 | 888 ft | 10 kts | 243° |
| 2026-04-21 02:42 | 47.59439 | 7.52709 | 889 ft | 6 kts | 245° |
| 2026-04-21 02:42 | 47.59432 | 7.52637 | 889 ft | 11 kts | 290° |
| 2026-04-21 02:42 | 47.59532 | 7.52547 | 887 ft | 30 kts | 335° |
| 2026-04-21 02:42 | 47.59952 | 7.52253 | 887 ft | 100 kts | 335° |
| 2026-04-21 02:43 | 47.60761 | 7.51688 | 883 ft | 155 kts | 334° |
| 2026-04-21 02:43 | 47.61804 | 7.50958 | 1302 ft | 165 kts | 334° |
| 2026-04-21 02:43 | 47.62846 | 7.50241 | 2005 ft | 168 kts | 335° |
| 2026-04-21 02:43 | 47.63963 | 7.49479 | 2416 ft | 186 kts | 334° |
| 2026-04-21 02:44 | 47.65179 | 7.48632 | 2851 ft | 201 kts | 334° |
| 2026-04-21 02:44 | 47.66515 | 7.47685 | 3247 ft | 221 kts | 334° |
| 2026-04-21 02:44 | 47.67897 | 7.46692 | 3996 ft | 226 kts | 335° |
| 2026-04-21 02:44 | 47.69379 | 7.45781 | 4810 ft | 230 kts | 351° |
| 2026-04-21 02:45 | 47.70944 | 7.45918 | 5554 ft | 231 kts | 21° |
| 2026-04-21 02:45 | 47.72292 | 7.47193 | 6340 ft | 233 kts | 49° |
| 2026-04-21 02:45 | 47.73088 | 7.49309 | 7138 ft | 236 kts | 76° |
| 2026-04-21 02:45 | 47.73114 | 7.51713 | 7872 ft | 241 kts | 101° |
| 2026-04-21 02:46 | 47.72752 | 7.54167 | 8618 ft | 246 kts | 102° |
| 2026-04-21 02:46 | 47.72379 | 7.56670 | 9359 ft | 251 kts | 102° |
| 2026-04-21 02:46 | 47.72001 | 7.59219 | 10103 ft | 255 kts | 101° |
| 2026-04-21 02:46 | 47.71616 | 7.61826 | 10819 ft | 261 kts | 101° |
| 2026-04-21 02:47 | 47.71222 | 7.64497 | 11483 ft | 268 kts | 102° |
| 2026-04-21 02:47 | 47.70819 | 7.67243 | 12118 ft | 276 kts | 102° |
| 2026-04-21 02:47 | 47.70408 | 7.70051 | 12754 ft | 282 kts | 102° |
| 2026-04-21 02:47 | 47.70043 | 7.72935 | 13403 ft | 287 kts | 94° |
| 2026-04-21 02:48 | 47.70097 | 7.75918 | 13961 ft | 295 kts | 79° |
| 2026-04-21 02:48 | 47.70672 | 7.78939 | 14156 ft | 315 kts | 65° |
| 2026-04-21 02:48 | 47.71493 | 7.82084 | 14320 ft | 338 kts | 66° |
| 2026-04-21 02:48 | 47.72362 | 7.85452 | 14465 ft | 360 kts | 66° |
| 2026-04-21 02:49 | 47.73262 | 7.88990 | 14933 ft | 370 kts | 66° |
| 2026-04-21 02:49 | 47.74167 | 7.92605 | 15536 ft | 376 kts | 66° |
| 2026-04-21 02:49 | 47.75081 | 7.96277 | 16124 ft | 382 kts | 66° |
| 2026-04-21 02:49 | 47.76008 | 7.99999 | 16697 ft | 387 kts | 66° |
| 2026-04-21 02:50 | 47.76773 | 8.03876 | 17258 ft | 396 kts | 77° |
| 2026-04-21 02:50 | 47.77016 | 8.08045 | 17784 ft | 404 kts | 90° |
| 2026-04-21 02:50 | 47.76678 | 8.12214 | 18307 ft | 409 kts | 103° |
| 2026-04-21 02:50 | 47.75804 | 8.16259 | 18832 ft | 414 kts | 112° |
| 2026-04-21 02:51 | 47.74794 | 8.20286 | 19347 ft | 418 kts | 111° |
| 2026-04-21 02:51 | 47.73774 | 8.24350 | 19882 ft | 423 kts | 111° |
| 2026-04-21 02:51 | 47.72744 | 8.28466 | 20396 ft | 427 kts | 111° |
| 2026-04-21 02:51 | 47.71660 | 8.32592 | 20900 ft | 431 kts | 117° |
| 2026-04-21 02:52 | 47.70130 | 8.36411 | 21400 ft | 431 kts | 130° |
| 2026-04-21 02:52 | 47.68112 | 8.39685 | 21867 ft | 430 kts | 143° |
| 2026-04-21 02:52 | 47.65703 | 8.42269 | 22346 ft | 426 kts | 156° |
| 2026-04-21 02:52 | 47.63021 | 8.44056 | 22804 ft | 421 kts | 169° |
| 2026-04-21 02:53 | 47.60197 | 8.45002 | 23257 ft | 414 kts | 181° |
| 2026-04-21 02:53 | 47.57326 | 8.45419 | 23728 ft | 416 kts | 182° |
| 2026-04-21 02:53 | 47.54430 | 8.45833 | 24167 ft | 420 kts | 182° |
| 2026-04-21 02:53 | 47.51511 | 8.46255 | 24607 ft | 423 kts | 182° |
| 2026-04-21 02:54 | 47.48576 | 8.46686 | 25040 ft | 426 kts | 182° |
| 2026-04-21 02:54 | 47.45619 | 8.47122 | 25441 ft | 430 kts | 182° |
| 2026-04-21 02:54 | 47.42634 | 8.47562 | 25853 ft | 432 kts | 182° |
| 2026-04-21 02:54 | 47.39629 | 8.48003 | 26241 ft | 435 kts | 182° |
| 2026-04-21 02:55 | 47.36604 | 8.48442 | 26622 ft | 438 kts | 182° |
| 2026-04-21 02:55 | 47.33559 | 8.48885 | 27016 ft | 441 kts | 182° |
| 2026-04-21 02:55 | 47.30498 | 8.49334 | 27398 ft | 443 kts | 182° |
| 2026-04-21 02:55 | 47.27425 | 8.49785 | 27772 ft | 446 kts | 182° |
| 2026-04-21 02:56 | 47.24329 | 8.50238 | 28118 ft | 448 kts | 182° |
| 2026-04-21 02:56 | 47.18087 | 8.51146 | 28773 ft | 453 kts | 181° |
| 2026-04-21 02:56 | 47.14941 | 8.51607 | 29099 ft | 455 kts | 181° |
| 2026-04-21 02:57 | 47.11783 | 8.52068 | 29434 ft | 458 kts | 182° |
| 2026-04-21 02:57 | 47.08606 | 8.52528 | 29758 ft | 460 kts | 181° |
| 2026-04-21 02:57 | 47.05452 | 8.52981 | 30047 ft | 463 kts | 181° |
| 2026-04-21 02:57 | 47.02237 | 8.53444 | 30340 ft | 465 kts | 181° |
| 2026-04-21 02:58 | 46.99016 | 8.53908 | 30617 ft | 467 kts | 181° |
| 2026-04-21 02:58 | 46.95779 | 8.54378 | 30942 ft | 467 kts | 181° |
| 2026-04-21 02:58 | 46.92539 | 8.54849 | 31249 ft | 469 kts | 181° |
| 2026-04-21 02:58 | 46.89290 | 8.55318 | 31541 ft | 470 kts | 181° |
| 2026-04-21 02:59 | 46.86045 | 8.55789 | 31951 ft | 468 kts | 181° |
| 2026-04-21 02:59 | 46.82808 | 8.56258 | 32264 ft | 467 kts | 181° |
| 2026-04-21 02:59 | 46.79574 | 8.56725 | 32581 ft | 466 kts | 181° |
| 2026-04-21 02:59 | 46.76349 | 8.57185 | 32914 ft | 465 kts | 181° |
| 2026-04-21 03:00 | 46.73135 | 8.57640 | 33262 ft | 464 kts | 181° |
| 2026-04-21 03:00 | 46.69920 | 8.58097 | 33594 ft | 463 kts | 181° |
| 2026-04-21 03:00 | 46.66719 | 8.58553 | 33832 ft | 462 kts | 181° |
| 2026-04-21 03:00 | 46.63524 | 8.59009 | 34132 ft | 461 kts | 181° |
| 2026-04-21 03:01 | 46.60333 | 8.59465 | 34496 ft | 460 kts | 181° |
| 2026-04-21 03:01 | 46.57158 | 8.59920 | 34823 ft | 459 kts | 180° |
| 2026-04-21 03:01 | 46.53982 | 8.60373 | 35111 ft | 458 kts | 180° |
| 2026-04-21 03:01 | 46.50809 | 8.60826 | 35369 ft | 458 kts | 180° |
| 2026-04-21 03:02 | 46.47639 | 8.61278 | 35610 ft | 458 kts | 180° |
| 2026-04-21 03:02 | 46.44473 | 8.61726 | 35837 ft | 457 kts | 180° |
| 2026-04-21 03:02 | 46.41306 | 8.62164 | 36072 ft | 457 kts | 181° |
| 2026-04-21 03:02 | 46.38141 | 8.62600 | 36293 ft | 457 kts | 180° |
| 2026-04-21 03:03 | 46.34974 | 8.63043 | 36474 ft | 457 kts | 180° |
| 2026-04-21 03:03 | 46.31809 | 8.63489 | 36685 ft | 457 kts | 180° |
| 2026-04-21 03:03 | 46.28644 | 8.63938 | 36889 ft | 457 kts | 180° |
| 2026-04-21 03:03 | 46.25481 | 8.64383 | 36999 ft | 456 kts | 180° |
| 2026-04-21 03:04 | 46.19209 | 8.65271 | 37006 ft | 451 kts | 180° |
| 2026-04-21 03:04 | 46.12990 | 8.66147 | 36990 ft | 447 kts | 180° |
| 2026-04-21 03:05 | 46.06806 | 8.67111 | 36987 ft | 448 kts | 179° |
| 2026-04-21 03:05 | 46.00670 | 8.68425 | 36980 ft | 450 kts | 177° |
| 2026-04-21 03:06 | 45.94492 | 8.69840 | 36981 ft | 450 kts | 177° |
| 2026-04-21 03:06 | 45.88317 | 8.71178 | 36978 ft | 448 kts | 178° |
| 2026-04-21 03:07 | 45.82100 | 8.72460 | 36972 ft | 448 kts | 178° |
| 2026-04-21 03:07 | 45.75980 | 8.73717 | 36965 ft | 448 kts | 178° |
| 2026-04-21 03:08 | 45.69812 | 8.74998 | 36955 ft | 448 kts | 178° |
| 2026-04-21 03:08 | 45.63641 | 8.76295 | 36950 ft | 448 kts | 178° |
| 2026-04-21 03:09 | 45.57476 | 8.77589 | 36947 ft | 448 kts | 178° |
| 2026-04-21 03:09 | 45.51313 | 8.78857 | 36940 ft | 447 kts | 178° |
| 2026-04-21 03:10 | 45.45154 | 8.80116 | 36938 ft | 447 kts | 178° |
| 2026-04-21 03:10 | 45.38994 | 8.81378 | 36934 ft | 448 kts | 178° |
| 2026-04-21 03:11 | 45.32828 | 8.82645 | 36934 ft | 448 kts | 178° |
| 2026-04-21 03:11 | 45.26656 | 8.83914 | 36935 ft | 448 kts | 178° |
| 2026-04-21 03:12 | 45.21523 | 8.84971 | 36937 ft | 448 kts | 178° |
| 2026-04-21 03:12 | 45.15350 | 8.86235 | 36942 ft | 448 kts | 178° |
| 2026-04-21 03:13 | 45.09177 | 8.87498 | 36944 ft | 448 kts | 178° |
| 2026-04-21 03:13 | 45.03005 | 8.88748 | 36942 ft | 448 kts | 178° |
| 2026-04-21 03:14 | 44.96829 | 8.90004 | 36942 ft | 449 kts | 178° |
| 2026-04-21 03:14 | 44.90652 | 8.91252 | 36940 ft | 449 kts | 178° |
| 2026-04-21 03:15 | 44.84468 | 8.92496 | 36936 ft | 448 kts | 178° |
| 2026-04-21 03:15 | 44.78289 | 8.93753 | 36935 ft | 449 kts | 178° |
| 2026-04-21 03:16 | 44.72104 | 8.95000 | 36934 ft | 449 kts | 178° |
| 2026-04-21 03:16 | 44.65904 | 8.96232 | 36755 ft | 452 kts | 178° |
| 2026-04-21 03:17 | 44.62777 | 8.96848 | 35420 ft | 459 kts | 178° |
| 2026-04-21 03:17 | 44.59611 | 8.97476 | 34518 ft | 460 kts | 178° |
| 2026-04-21 03:17 | 44.56464 | 8.98112 | 34025 ft | 455 kts | 179° |
| 2026-04-21 03:17 | 44.53333 | 8.98753 | 33478 ft | 453 kts | 179° |
| 2026-04-21 03:18 | 44.50222 | 8.99389 | 32932 ft | 450 kts | 179° |
| 2026-04-21 03:18 | 44.47135 | 9.00012 | 32384 ft | 447 kts | 179° |
| 2026-04-21 03:18 | 44.44058 | 9.00622 | 31842 ft | 446 kts | 179° |
| 2026-04-21 03:18 | 44.41003 | 9.01224 | 31306 ft | 442 kts | 179° |
| 2026-04-21 03:19 | 44.37962 | 9.01821 | 30781 ft | 440 kts | 179° |
| 2026-04-21 03:19 | 44.34939 | 9.02415 | 30276 ft | 437 kts | 178° |
| 2026-04-21 03:19 | 44.31938 | 9.03008 | 29770 ft | 434 kts | 178° |
| 2026-04-21 03:19 | 44.28965 | 9.03597 | 29282 ft | 430 kts | 178° |
| 2026-04-21 03:20 | 44.26060 | 9.04173 | 28804 ft | 427 kts | 178° |
| 2026-04-21 03:20 | 44.23126 | 9.04753 | 28338 ft | 423 kts | 178° |
| 2026-04-21 03:20 | 44.20222 | 9.05280 | 27868 ft | 417 kts | 182° |
| 2026-04-21 03:20 | 44.17374 | 9.05248 | 27432 ft | 404 kts | 192° |
| 2026-04-21 03:21 | 44.14555 | 9.04908 | 26996 ft | 399 kts | 192° |
| 2026-04-21 03:21 | 44.11796 | 9.04574 | 26558 ft | 396 kts | 192° |
| 2026-04-21 03:21 | 44.09062 | 9.04244 | 26114 ft | 393 kts | 192° |
| 2026-04-21 03:21 | 44.06341 | 9.03917 | 25667 ft | 390 kts | 192° |
| 2026-04-21 03:22 | 44.03678 | 9.03601 | 25207 ft | 388 kts | 192° |
| 2026-04-21 03:22 | 44.00996 | 9.03284 | 24752 ft | 385 kts | 191° |
| 2026-04-21 03:22 | 43.98299 | 9.02967 | 24270 ft | 383 kts | 191° |
| 2026-04-21 03:22 | 43.95689 | 9.02661 | 23811 ft | 380 kts | 191° |
| 2026-04-21 03:23 | 43.93059 | 9.02350 | 23331 ft | 378 kts | 191° |
| 2026-04-21 03:23 | 43.90445 | 9.02033 | 22853 ft | 376 kts | 191° |
| 2026-04-21 03:23 | 43.87847 | 9.01712 | 22390 ft | 374 kts | 191° |
| 2026-04-21 03:23 | 43.85263 | 9.01393 | 21928 ft | 372 kts | 191° |
| 2026-04-21 03:24 | 43.82698 | 9.01077 | 21476 ft | 369 kts | 191° |
| 2026-04-21 03:24 | 43.80145 | 9.00763 | 21026 ft | 367 kts | 191° |
| 2026-04-21 03:24 | 43.77605 | 9.00458 | 20581 ft | 365 kts | 190° |
| 2026-04-21 03:24 | 43.75078 | 9.00164 | 20137 ft | 363 kts | 190° |
| 2026-04-21 03:25 | 43.72567 | 8.99874 | 19700 ft | 361 kts | 190° |
| 2026-04-21 03:25 | 43.70071 | 8.99584 | 19264 ft | 359 kts | 190° |
| 2026-04-21 03:25 | 43.67594 | 8.99292 | 18832 ft | 357 kts | 190° |
| 2026-04-21 03:25 | 43.65127 | 8.99001 | 18404 ft | 355 kts | 190° |
| 2026-04-21 03:26 | 43.62673 | 8.98713 | 17975 ft | 353 kts | 189° |
| 2026-04-21 03:26 | 43.60231 | 8.98433 | 17554 ft | 351 kts | 189° |
| 2026-04-21 03:26 | 43.57800 | 8.98155 | 17139 ft | 349 kts | 189° |
| 2026-04-21 03:26 | 43.55383 | 8.97877 | 16732 ft | 348 kts | 189° |
| 2026-04-21 03:27 | 43.52984 | 8.97596 | 16319 ft | 345 kts | 189° |
| 2026-04-21 03:27 | 43.50596 | 8.97305 | 15915 ft | 343 kts | 189° |
| 2026-04-21 03:27 | 43.48224 | 8.97008 | 15515 ft | 341 kts | 189° |
| 2026-04-21 03:27 | 43.45866 | 8.96710 | 15115 ft | 339 kts | 189° |
| 2026-04-21 03:28 | 43.43539 | 8.96421 | 14923 ft | 331 kts | 189° |
| 2026-04-21 03:28 | 43.41287 | 8.96148 | 14939 ft | 321 kts | 189° |
| 2026-04-21 03:28 | 43.39070 | 8.95879 | 14942 ft | 320 kts | 189° |
| 2026-04-21 03:28 | 43.36857 | 8.95613 | 14943 ft | 319 kts | 189° |
| 2026-04-21 03:29 | 43.34644 | 8.95361 | 14943 ft | 319 kts | 189° |
| 2026-04-21 03:29 | 43.32431 | 8.95116 | 14943 ft | 319 kts | 189° |
| 2026-04-21 03:29 | 43.30210 | 8.94870 | 14532 ft | 324 kts | 189° |
| 2026-04-21 03:29 | 43.27919 | 8.94610 | 13823 ft | 333 kts | 189° |
| 2026-04-21 03:30 | 43.25548 | 8.94533 | 12997 ft | 349 kts | 176° |
| 2026-04-21 03:30 | 43.23214 | 8.95514 | 12475 ft | 356 kts | 155° |
| 2026-04-21 03:30 | 43.21258 | 8.97592 | 11990 ft | 359 kts | 132° |
| 2026-04-21 03:30 | 43.19856 | 9.00407 | 11515 ft | 357 kts | 122° |
| 2026-04-21 03:31 | 43.18578 | 9.03267 | 11314 ft | 343 kts | 122° |
| 2026-04-21 03:31 | 43.17357 | 9.06016 | 10730 ft | 334 kts | 122° |
| 2026-04-21 03:31 | 43.16161 | 9.08701 | 10460 ft | 326 kts | 122° |
| 2026-04-21 03:31 | 43.14988 | 9.11323 | 10204 ft | 319 kts | 122° |
| 2026-04-21 03:32 | 43.13839 | 9.13881 | 9957 ft | 313 kts | 122° |
| 2026-04-21 03:32 | 43.12710 | 9.16385 | 9799 ft | 307 kts | 122° |
| 2026-04-21 03:32 | 43.11594 | 9.18865 | 9634 ft | 305 kts | 122° |
| 2026-04-21 03:32 | 43.10484 | 9.21333 | 9402 ft | 303 kts | 122° |
| 2026-04-21 03:33 | 43.09381 | 9.23784 | 9155 ft | 302 kts | 122° |
| 2026-04-21 03:33 | 43.08283 | 9.26222 | 8912 ft | 300 kts | 122° |
| 2026-04-21 03:33 | 43.07192 | 9.28640 | 8676 ft | 298 kts | 122° |
| 2026-04-21 03:33 | 43.06104 | 9.31052 | 8434 ft | 297 kts | 122° |
| 2026-04-21 03:34 | 43.05021 | 9.33444 | 8196 ft | 295 kts | 122° |
| 2026-04-21 03:34 | 43.03956 | 9.35791 | 7974 ft | 294 kts | 122° |
| 2026-04-21 03:34 | 43.02884 | 9.38158 | 7720 ft | 292 kts | 122° |
| 2026-04-21 03:34 | 43.01818 | 9.40514 | 7483 ft | 290 kts | 122° |
| 2026-04-21 03:35 | 43.00756 | 9.42855 | 7249 ft | 289 kts | 122° |
| 2026-04-21 03:35 | 42.99699 | 9.45181 | 7027 ft | 288 kts | 122° |
| 2026-04-21 03:35 | 42.98644 | 9.47500 | 6787 ft | 287 kts | 122° |
| 2026-04-21 03:35 | 42.97594 | 9.49809 | 6593 ft | 285 kts | 122° |
| 2026-04-21 03:36 | 42.96548 | 9.52111 | 6388 ft | 285 kts | 122° |
| 2026-04-21 03:36 | 42.95510 | 9.54394 | 6178 ft | 279 kts | 122° |
| 2026-04-21 03:36 | 42.94511 | 9.56589 | 6047 ft | 266 kts | 123° |
| 2026-04-21 03:36 | 42.93310 | 9.58385 | 5915 ft | 251 kts | 146° |
| 2026-04-21 03:37 | 42.91762 | 9.59349 | 5643 ft | 242 kts | 170° |
| 2026-04-21 03:37 | 42.90113 | 9.59401 | 5471 ft | 237 kts | 192° |
| 2026-04-21 03:37 | 42.88513 | 9.58839 | 5368 ft | 238 kts | 197° |
| 2026-04-21 03:37 | 42.86926 | 9.58254 | 5239 ft | 232 kts | 197° |
| 2026-04-21 03:38 | 42.85385 | 9.57691 | 5075 ft | 228 kts | 196° |
| 2026-04-21 03:38 | 42.83924 | 9.56911 | 4878 ft | 223 kts | 208° |
| 2026-04-21 03:38 | 42.82556 | 9.55978 | 4663 ft | 218 kts | 207° |
| 2026-04-21 03:38 | 42.81214 | 9.55073 | 4457 ft | 213 kts | 207° |
| 2026-04-21 03:39 | 42.79899 | 9.54189 | 4250 ft | 208 kts | 207° |
| 2026-04-21 03:39 | 42.78612 | 9.53329 | 4057 ft | 204 kts | 207° |
| 2026-04-21 03:39 | 42.77361 | 9.52494 | 3898 ft | 196 kts | 207° |
| 2026-04-21 03:39 | 42.76154 | 9.51689 | 3688 ft | 190 kts | 207° |
| 2026-04-21 03:40 | 42.74973 | 9.50898 | 3502 ft | 189 kts | 207° |
| 2026-04-21 03:40 | 42.73794 | 9.50111 | 3321 ft | 189 kts | 206° |
| 2026-04-21 03:40 | 42.72615 | 9.49324 | 3143 ft | 189 kts | 206° |
| 2026-04-21 03:40 | 42.71440 | 9.48538 | 2958 ft | 188 kts | 206° |
| 2026-04-21 03:41 | 42.70270 | 9.47752 | 2784 ft | 187 kts | 206° |
| 2026-04-21 03:41 | 42.69103 | 9.46968 | 2602 ft | 187 kts | 206° |
| 2026-04-21 03:41 | 42.67860 | 9.46542 | 2410 ft | 186 kts | 180° |
| 2026-04-21 03:41 | 42.66574 | 9.46633 | 2137 ft | 184 kts | 177° |
| 2026-04-21 03:42 | 42.65321 | 9.46728 | 1875 ft | 175 kts | 177° |
| 2026-04-21 03:42 | 42.64151 | 9.46813 | 1635 ft | 162 kts | 177° |
| 2026-04-21 03:42 | 42.63082 | 9.46889 | 1436 ft | 148 kts | 178° |
| 2026-04-21 03:42 | 42.62082 | 9.46958 | 1228 ft | 142 kts | 177° |
| 2026-04-21 03:43 | 42.61106 | 9.47026 | 1027 ft | 139 kts | 178° |
| 2026-04-21 03:43 | 42.60147 | 9.47094 | 815 ft | 138 kts | 178° |
| 2026-04-21 03:43 | 42.59192 | 9.47164 | 628 ft | 137 kts | 177° |
| 2026-04-21 03:43 | 42.58240 | 9.47237 | 438 ft | 136 kts | 176° |
| 2026-04-21 03:44 | 42.57315 | 9.47525 | 246 ft | 137 kts | 162° |
| 2026-04-21 03:44 | 42.56408 | 9.47895 | 87 ft | 136 kts | 163° |
| 2026-04-21 03:44 | 42.55549 | 9.48255 | 33 ft | 112 kts | 164° |
| 2026-04-21 03:44 | 42.54974 | 9.48496 | 37 ft | 62 kts | 162° |
| 2026-04-21 03:45 | 42.54647 | 9.48634 | 30 ft | 47 kts | 163° |
| 2026-04-21 03:45 | 42.54345 | 9.48757 | 34 ft | 37 kts | 163° |
| 2026-04-21 03:45 | 42.54211 | 9.48794 | 36 ft | 17 kts | 192° |
| 2026-04-21 03:45 | 42.54127 | 9.48675 | 38 ft | 18 kts | 253° |
| 2026-04-21 03:46 | 42.54173 | 9.48517 | 36 ft | 18 kts | 320° |
| 2026-04-21 03:46 | 42.54306 | 9.48457 | 33 ft | 20 kts | 342° |
| 2026-04-21 03:46 | 42.54421 | 9.48413 | 32 ft | 18 kts | 355° |
| 2026-04-21 03:46 | 42.54519 | 9.48410 | 31 ft | 13 kts | 343° |
| 2026-04-21 03:47 | 42.54599 | 9.48377 | 33 ft | 11 kts | 342° |
| 2026-04-21 03:47 | 42.54658 | 9.48336 | 32 ft | 8 kts | 297° |
| 2026-04-21 03:47 | 42.54668 | 9.48281 | 35 ft | 3 kts | 282° |
| 2026-04-21 03:47 | 42.54672 | 9.48255 | 37 ft | 4 kts | 283° |
| 2026-04-21 03:48 | 42.54674 | 9.48242 | 37 ft | 1 kts | 283° |
| 2026-04-21 03:48 | 42.54676 | 9.48230 | 38 ft | 0 kts | 282° |